• Join FlightAware (Why Join?)
  • Login
  • US Flag 
06:41AM EDT


 

Airport Tracker/Info


-or-


 

Live Flight TrackerFlight Track Log ✈ ASQ5327 ✈ 01-Oct-2013 ✈ KMSP - KCVG

Flight Track Log - Related Links

Times and Time Zones

All times are in EDT time to prevent confusion due to time zone crossing. See the ASQ5327 flight status page for this flight to view local times or setup timezone preferences in your user account.

Time Position Orientation Groundspeed Altitude Reporting Facility
EDT Latitude Longitude Course Direction KTS MPH feet Rate Location/Type
02:21PM 44.8833 -93.3000 251° West 203 234 2,700  Level Minneapolis TRACON
02:22PM 44.8667 -93.3667 251° West 264 304 5,300 2,940 Climbing Minneapolis TRACON
02:23PM 44.7656 -93.3611 178° South 295 339 9,600 2,640 Climbing Minneapolis Center
02:24PM 44.7192 -93.2567 122° Southeast 328 377 11,900 2,100 Climbing Minneapolis Center
02:25PM 44.6597 -93.1228 122° Southeast 355 409 14,000 1,740 Climbing Minneapolis Center
02:26PM 44.6031 -92.9933 122° Southeast 389 448 15,500 1,440 Climbing Minneapolis Center
02:28PM 44.5406 -92.8531 122° Southeast 425 489 17,000 1,500 Climbing Minneapolis Center
02:29PM 44.4753 -92.7072 122° Southeast 441 507 18,600 1,500 Climbing Minneapolis Center
02:30PM 44.4064 -92.5564 123° Southeast 454 522 20,100 1,560 Climbing Minneapolis Center
02:31PM 44.3225 -92.3658 122° Southeast 480 552 21,900 1,500 Climbing Minneapolis Center
02:32PM 44.2511 -92.2075 122° Southeast 483 556 23,200 1,260 Climbing Minneapolis Center
02:33PM 44.1792 -92.0475 122° Southeast 488 562 24,600 1,260 Climbing Minneapolis Center
02:34PM 44.1058 -91.8867 122° Southeast 490 564 25,900 1,260 Climbing Minneapolis Center
02:35PM 44.0308 -91.7217 122° Southeast 502 578 27,200 1,260 Climbing Minneapolis Center
02:36PM 43.9550 -91.5592 123° Southeast 503 579 28,500 1,200 Climbing Minneapolis Center
02:37PM 43.8703 -91.4092 128° Southeast 501 577 29,700 1,140 Climbing Minneapolis Center
02:38PM 43.7556 -91.2458 134° Southeast 497 572 30,900 1,020 Climbing Minneapolis Center
02:39PM 43.6578 -91.1100 135° Southeast 498 573 31,900 900 Climbing Minneapolis Center
02:40PM 43.5997 -91.0325 136° Southeast 498 573 32,500 600 Climbing Chicago Center
02:41PM 43.4833 -90.8706 135° Southeast 500 575 33,000 240 Climbing Chicago Center
02:42PM 43.3856 -90.7344 135° Southeast 501 577 33,000  Level Chicago Center
02:43PM 43.2850 -90.5978 135° Southeast 507 583 33,000  Level Chicago Center
02:44PM 43.1850 -90.4592 135° Southeast 512 589 33,000  Level Chicago Center
02:45PM 43.0831 -90.3217 135° Southeast 516 594 33,000  Level Chicago Center
02:46PM 42.9633 -90.1583 135° Southeast 512 589 33,000  Level Chicago Center
02:47PM 42.8617 -90.0233 136° Southeast 512 589 33,000  Level Chicago Center
02:48PM 42.7603 -89.8889 136° Southeast 512 589 33,000  Level Chicago Center
02:49PM 42.6606 -89.7561 136° Southeast 508 585 33,000  Level Chicago Center
02:50PM 42.5600 -89.6253 136° Southeast 505 581 33,000  Level Chicago Center
02:51PM 42.4397 -89.4686 136° Southeast 503 579 33,000  Level Chicago Center
02:52PM 42.3408 -89.3375 136° Southeast 501 577 33,000  Level Chicago Center
02:53PM 42.2378 -89.2039 136° Southeast 501 577 33,000  Level Chicago Center
02:54PM 42.1372 -89.0744 136° Southeast 500 575 33,000  Level Chicago Center
02:55PM 42.0383 -88.9447 136° Southeast 500 575 33,000  Level Chicago Center
02:56PM 41.9375 -88.8167 137° Southeast 501 577 33,000  Level Chicago Center
02:57PM 41.8178 -88.6619 136° Southeast 502 578 33,000  Level Chicago Center
02:58PM 41.7181 -88.5353 137° Southeast 498 573 33,000 -600 Level Chicago Center
02:59PM 41.6172 -88.4086 137° Southeast 500 575 31,800 -1,320 Descending Chicago Center
03:00PM 41.5156 -88.2797 136° Southeast 507 583 30,300 -1,380 Descending Chicago Center
03:01PM 41.4036 -88.1333 136° Southeast 507 583 29,000 -660 Descending Chicago Center
03:02PM 41.3028 -88.0078 137° Southeast 503 579 29,000  Level Chicago Center
03:03PM 41.2081 -87.8853 136° Southeast 489 563 29,000  Level Chicago Center
03:04PM 41.1133 -87.7653 136° Southeast 478 550 29,000  Level Chicago Center
03:05PM 40.9994 -87.6211 136° Southeast 475 547 29,000  Level Chicago Center
03:07PM 40.9056 -87.5022 136° Southeast 470 541 29,000  Level Chicago Center
03:08PM 40.8106 -87.3872 137° Southeast 467 537 29,000 -420 Level Chicago Center
03:09PM 40.7181 -87.2700 136° Southeast 465 535 28,200 -900 Descending Chicago Center
03:10PM 40.6211 -87.1553 138° Southeast 470 541 27,200 -1,080 Descending Chicago Center
03:11PM 40.4956 -87.0350 144° Southeast 477 549 26,000 -1,080 Descending Chicago Center
03:12PM 40.3897 -86.9308 143° Southeast 478 550 25,000 -1,020 Descending Chicago Center
03:13PM 40.2842 -86.8261 143° Southeast 477 549 24,000 -720 Descending Chicago Center
03:14PM 40.1772 -86.7211 143° Southeast 482 555 23,600 -540 Descending Chicago Center
03:15PM 40.0692 -86.6156 143° Southeast 481 554 23,000 -360 Descending Indianapolis Center
03:16PM 39.9639 -86.5119 143° Southeast 477 549 23,000 -60 Level Indianapolis Center
03:17PM 39.8561 -86.4078 143° Southeast 481 554 22,900 -1,320 Descending Indianapolis Center
03:18PM 39.7786 -86.2617 125° Southeast 475 547 20,300 -2,460 Descending Indianapolis Center
03:19PM 39.7272 -86.1039 113° Southeast 471 542 17,900 -2,220 Descending Indianapolis Center
03:20PM 39.6781 -85.9586 114° Southeast 451 519 15,800 -2,040 Descending Indianapolis Center
03:21PM 39.6217 -85.7914 114° Southeast 435 501 13,700 -1,620 Descending Indianapolis Center
03:22PM 39.5775 -85.6600 114° Southeast 416 479 12,500 -1,260 Descending Indianapolis Center
03:23PM 39.5319 -85.5264 114° Southeast 408 470 11,200 -780 Descending Indianapolis Center
03:24PM 39.4783 -85.4147 122° Southeast 376 433 11,000 -420 Descending Indianapolis Center
03:25PM 39.4450 -85.3031 111° Southeast 343 395 10,400 -1,020 Descending Indianapolis Center
03:26PM 39.4211 -85.1967 106° East 317 365 8,900 -1,500 Descending Indianapolis Center
03:27PM 39.3947 -85.0769 106° East 296 341 7,300 -1,560 Descending Indianapolis Center
03:28PM 39.3733 -84.9781 106° East 291 335 5,700 -1,140 Descending Indianapolis Center
03:29PM 39.3433 -84.8878 113° Southeast 282 325 5,000 -480 Descending Indianapolis Center
03:30PM 39.3006 -84.8092 125° Southeast 273 314 4,800 -540 Descending Indianapolis Center
03:31PM 39.2425 -84.7478 141° Southeast 267 307 3,900 -900 Descending Indianapolis Center
03:33PM 39.1333 -84.6667 150° Southeast 186 214 2,300 -840 Descending Cincinnati TRACON
03:34PM 39.1000 -84.6667 180° South 150 173 1,500 -840 Descending Cincinnati TRACON
03:36PM 39.0488 -84.6678 180° South  Level Estimated
03:43PM 39.0488 -84.6678 North  Level Estimated